Time;durP1;ratioP1;P1;durP2;ratioP2;P2;SDS_P1;SDS_P2;PMS_P1;PMS_P2;Temp;Humidity;BMP_temperature;BMP_pressure;BME280_temperature;BME280_humidity;BME280_pressure;Samples;Min_cycle;Max_cycle;Signal;HPM_P1;HPM_P2
2023/03/06 00:00:58;;;;;;;3.05;1.63;;;32.20;36.40;;;;;;5000263;28;20264;-70
2023/03/06 00:03:26;;;;;;;4.05;1.48;;;32.30;36.90;;;;;;5012586;28;20647;-66
2023/03/06 00:05:57;;;;;;;2.83;1.50;;;32.20;36.30;;;;;;5013382;28;20181;-67
2023/03/06 00:08:26;;;;;;;2.65;1.65;;;32.50;36.10;;;;;;5013766;28;20189;-66
2023/03/06 00:10:55;;;;;;;3.78;1.55;;;32.40;35.90;;;;;;5013333;28;20209;-69
2023/03/06 00:13:23;;;;;;;4.68;1.58;;;32.60;36.30;;;;;;5009403;28;20307;-67
2023/03/06 00:15:51;;;;;;;5.72;1.50;;;32.80;35.80;;;;;;5010725;28;20193;-68
2023/03/06 00:18:18;;;;;;;3.90;1.40;;;32.90;35.30;;;;;;5013998;28;20170;-67
2023/03/06 00:20:45;;;;;;;3.55;1.60;;;32.80;34.90;;;;;;4993056;28;20183;-66
2023/03/06 00:23:13;;;;;;;7.45;1.67;;;32.90;35.70;;;;;;4994959;28;20200;-67
2023/03/06 00:25:44;;;;;;;4.68;1.60;;;33.20;35.30;;;;;;4982285;28;20578;-69
2023/03/06 00:28:13;;;;;;;1.70;1.30;;;33.30;35.30;;;;;;4988972;28;20188;-68
2023/03/06 00:30:41;;;;;;;4.28;2.15;;;33.30;35.00;;;;;;5005637;28;20209;-69
2023/03/06 00:33:08;;;;;;;7.35;1.92;;;33.10;34.50;;;;;;5012813;28;20220;-73
2023/03/06 00:35:38;;;;;;;3.45;1.63;;;33.30;34.70;;;;;;5003120;28;20659;-68
2023/03/06 00:38:06;;;;;;;2.83;1.23;;;33.30;34.00;;;;;;4991323;28;20213;-69
2023/03/06 00:40:33;;;;;;;5.13;1.30;;;33.40;33.90;;;;;;4996121;28;20176;-70
2023/03/06 00:43:00;;;;;;;3.08;1.42;;;33.80;33.40;;;;;;4987121;28;20596;-68
2023/03/06 00:45:29;;;;;;;2.35;1.52;;;34.00;33.10;;;;;;4988428;28;20549;-67
2023/03/06 00:47:56;;;;;;;2.75;1.50;;;34.00;33.20;;;;;;4991691;28;20185;-70
2023/03/06 00:50:23;;;;;;;4.85;1.50;;;33.90;32.70;;;;;;4988760;28;20534;-68
2023/03/06 00:52:51;;;;;;;3.53;1.90;;;33.90;32.90;;;;;;4990883;28;20210;-71
2023/03/06 00:55:18;;;;;;;4.97;1.65;;;33.90;32.80;;;;;;4998944;28;20173;-72
2023/03/06 00:57:45;;;;;;;4.32;1.88;;;33.90;32.90;;;;;;4991234;28;20280;-71
2023/03/06 01:00:14;;;;;;;10.38;1.42;;;34.20;32.70;;;;;;4991775;28;20176;-71
2023/03/06 01:02:41;;;;;;;3.72;1.60;;;34.50;32.70;;;;;;4988685;28;20198;-67
2023/03/06 01:05:11;;;;;;;7.15;1.75;;;34.80;32.60;;;;;;4991011;28;20186;-73
2023/03/06 01:07:38;;;;;;;2.25;1.40;;;34.70;32.30;;;;;;4986536;28;20273;-75
2023/03/06 01:10:08;;;;;;;6.45;1.70;;;34.80;31.30;;;;;;4988382;28;20183;-74
2023/03/06 01:12:35;;;;;;;2.35;1.35;;;34.80;32.10;;;;;;4995992;28;20308;-68
2023/03/06 01:15:03;;;;;;;2.83;1.55;;;34.70;31.50;;;;;;4991458;28;20703;-72
2023/03/06 01:17:30;;;;;;;7.10;1.42;;;34.40;31.70;;;;;;4989634;28;20197;-69
2023/03/06 01:19:58;;;;;;;2.47;1.50;;;34.70;31.50;;;;;;4993223;28;20185;-75
2023/03/06 01:22:25;;;;;;;6.38;1.58;;;34.80;31.80;;;;;;4993707;28;20272;-71
2023/03/06 01:24:53;;;;;;;2.78;1.58;;;34.80;31.20;;;;;;4982071;28;20185;-73
2023/03/06 01:27:20;;;;;;;1.92;1.60;;;34.70;31.80;;;;;;4986292;28;20210;-76
2023/03/06 01:29:48;;;;;;;4.35;1.50;;;34.70;31.80;;;;;;4995634;28;20178;-74
2023/03/06 01:32:15;;;;;;;4.55;1.48;;;34.70;31.40;;;;;;4989688;28;20249;-75
2023/03/06 01:34:42;;;;;;;6.53;1.40;;;34.70;31.20;;;;;;4988969;28;20181;-72
2023/03/06 01:37:09;;;;;;;6.45;1.48;;;34.80;30.90;;;;;;4996410;28;20668;-67
2023/03/06 01:39:37;;;;;;;4.25;1.40;;;34.90;31.10;;;;;;4989840;28;20229;-68
2023/03/06 01:42:05;;;;;;;5.15;1.52;;;34.90;30.80;;;;;;4991124;28;20679;-77
2023/03/06 01:44:32;;;;;;;5.45;1.90;;;35.30;30.10;;;;;;4989725;28;20220;-68
2023/03/06 01:47:01;;;;;;;2.65;1.58;;;35.50;30.50;;;;;;4991870;28;20605;-67
2023/03/06 01:49:33;;;;;;;6.93;1.92;;;35.80;30.20;;;;;;4981393;28;20178;-72
2023/03/06 01:52:13;;;;;;;3.00;1.58;;;35.60;30.80;;;;;;4983201;28;20213;-72
2023/03/06 01:54:43;;;;;;;7.95;1.85;;;35.60;30.30;;;;;;4990071;28;20181;-70
2023/03/06 01:57:22;;;;;;;3.28;1.65;;;35.80;30.20;;;;;;4991496;28;20235;-65
2023/03/06 02:00:03;;;;;;;3.63;1.60;;;35.90;30.30;;;;;;4989942;28;20185;-65
2023/03/06 02:02:30;;;;;;;2.42;1.48;;;35.90;29.90;;;;;;4984663;28;20208;-73
2023/03/06 02:04:59;;;;;;;5.88;1.65;;;36.30;29.50;;;;;;4992373;28;20189;-70
2023/03/06 02:07:26;;;;;;;1.75;1.23;;;36.20;29.00;;;;;;4996220;28;20717;-74
2023/03/06 02:09:54;;;;;;;7.32;1.73;;;36.00;28.60;;;;;;4993403;28;20186;-75
2023/03/06 02:12:23;;;;;;;3.40;1.50;;;36.20;28.20;;;;;;4989731;28;20272;-68
2023/03/06 02:14:50;;;;;;;2.65;1.35;;;36.30;28.50;;;;;;4994362;28;20178;-73
2023/03/06 02:17:20;;;;;;;6.25;1.40;;;36.30;27.80;;;;;;4992622;28;20178;-75
2023/03/06 02:20:19;;;;;;;2.97;1.30;;;36.20;27.50;;;;;;4992885;28;20189;-80
2023/03/06 02:23:01;;;;;;;7.03;1.23;;;36.30;27.70;;;;;;4989316;28;20533;-72
2023/03/06 02:25:42;;;;;;;11.82;1.50;;;36.30;27.70;;;;;;4993928;28;20265;-65
2023/03/06 02:28:16;;;;;;;2.42;1.00;;;36.80;27.20;;;;;;4997127;28;20198;-71
2023/03/06 02:30:45;;;;;;;3.00;1.00;;;37.10;26.20;;;;;;4995491;28;20182;-68
2023/03/06 02:33:18;;;;;;;4.55;1.27;;;37.00;25.20;;;;;;4991815;28;20249;-66
2023/03/06 02:35:57;;;;;;;3.97;1.20;;;37.20;26.00;;;;;;4989706;28;20197;-73
2023/03/06 02:38:31;;;;;;;2.25;1.05;;;37.30;26.10;;;;;;4993142;28;20277;-66
2023/03/06 02:41:01;;;;;;;1.25;1.05;;;37.10;25.90;;;;;;4995797;28;20553;-65
2023/03/06 02:43:32;;;;;;;2.33;1.17;;;37.10;26.10;;;;;;4996667;28;20186;-68
2023/03/06 02:45:59;;;;;;;1.23;1.08;;;37.50;25.20;;;;;;4987040;28;20191;-66
2023/03/06 02:48:26;;;;;;;2.80;1.38;;;37.60;25.30;;;;;;4991005;28;21551;-71
2023/03/06 02:50:54;;;;;;;2.35;1.00;;;37.70;25.40;;;;;;4993891;28;20190;-67
2023/03/06 02:53:22;;;;;;;2.13;1.05;;;37.40;25.30;;;;;;4993028;28;20790;-70
2023/03/06 02:55:49;;;;;;;3.80;1.20;;;37.50;25.10;;;;;;4996907;28;20174;-66
2023/03/06 02:58:20;;;;;;;4.90;1.42;;;37.60;25.20;;;;;;4996077;28;20594;-68
2023/03/06 03:00:49;;;;;;;3.42;1.23;;;37.50;25.10;;;;;;4991768;28;20182;-66
2023/03/06 03:03:17;;;;;;;2.30;1.10;;;37.70;24.60;;;;;;4991327;28;20217;-70
2023/03/06 03:05:44;;;;;;;6.40;1.13;;;38.20;24.40;;;;;;4995927;28;20688;-71
2023/03/06 03:08:12;;;;;;;2.58;1.40;;;38.20;24.30;;;;;;4988303;28;20648;-76
2023/03/06 03:10:39;;;;;;;4.30;1.08;;;38.40;23.80;;;;;;4994857;28;20201;-65
2023/03/06 03:13:06;;;;;;;4.55;1.30;;;38.30;24.10;;;;;;4995954;28;20256;-72
2023/03/06 03:15:34;;;;;;;2.38;1.20;;;38.30;23.20;;;;;;4994836;28;20603;-68
2023/03/06 03:18:01;;;;;;;2.67;1.00;;;38.30;23.50;;;;;;5009711;28;20194;-69
2023/03/06 03:20:28;;;;;;;4.90;1.15;;;38.20;23.50;;;;;;4993184;28;20193;-68
2023/03/06 03:22:56;;;;;;;2.53;1.23;;;38.20;23.60;;;;;;4999347;28;20686;-71
2023/03/06 03:25:25;;;;;;;4.28;1.23;;;38.60;22.90;;;;;;4992902;28;20201;-69
2023/03/06 03:27:52;;;;;;;3.67;1.38;;;39.20;22.70;;;;;;4975051;28;20586;-70
2023/03/06 03:30:19;;;;;;;2.15;1.30;;;39.50;22.60;;;;;;4991335;28;20193;-72
2023/03/06 03:32:47;;;;;;;5.10;1.40;;;39.30;22.40;;;;;;4986370;28;20202;-70
2023/03/06 03:35:14;;;;;;;8.15;2.17;;;38.90;22.40;;;;;;4995138;28;20544;-66
2023/03/06 03:37:41;;;;;;;3.28;1.08;;;39.00;22.70;;;;;;5005360;28;20212;-74
2023/03/06 03:40:10;;;;;;;2.05;1.05;;;39.10;22.20;;;;;;4995477;28;20194;-70
2023/03/06 03:42:37;;;;;;;6.82;1.40;;;38.90;22.30;;;;;;4972538;28;20532;-71
2023/03/06 03:45:05;;;;;;;3.75;1.20;;;38.90;22.00;;;;;;4992475;28;20228;-69
2023/03/06 03:47:33;;;;;;;6.78;1.25;;;38.90;22.00;;;;;;4981770;28;20178;-73
2023/03/06 03:50:00;;;;;;;6.05;1.48;;;38.80;22.70;;;;;;4996367;28;20182;-67
2023/03/06 03:52:27;;;;;;;3.70;1.13;;;39.30;21.90;;;;;;4997349;28;20205;-66
2023/03/06 03:54:55;;;;;;;7.57;1.27;;;39.50;21.60;;;;;;5003503;28;20180;-66
2023/03/06 03:57:22;;;;;;;1.60;1.10;;;39.50;21.60;;;;;;5013548;28;20185;-71
2023/03/06 03:59:49;;;;;;;2.22;1.20;;;39.50;21.60;;;;;;4993410;28;20178;-67
2023/03/06 04:02:17;;;;;;;3.30;1.20;;;39.70;21.20;;;;;;4989738;28;20175;-67
2023/03/06 04:04:44;;;;;;;2.95;1.25;;;40.10;20.80;;;;;;4992665;28;20193;-69
2023/03/06 04:07:12;;;;;;;4.38;1.40;;;40.40;20.40;;;;;;4988097;28;20173;-67
2023/03/06 04:09:39;;;;;;;2.55;1.25;;;40.30;20.90;;;;;;4993981;28;20189;-67
2023/03/06 04:12:07;;;;;;;4.22;1.08;;;40.10;21.50;;;;;;4992870;28;20230;-71
2023/03/06 04:14:34;;;;;;;6.18;1.20;;;39.80;21.30;;;;;;5000532;28;20266;-67
2023/03/06 04:17:02;;;;;;;2.45;1.00;;;39.60;20.70;;;;;;5009662;28;20659;-68
2023/03/06 04:19:29;;;;;;;4.25;1.50;;;40.10;20.10;;;;;;5001518;28;20273;-68
2023/03/06 04:21:56;;;;;;;4.20;0.98;;;41.00;20.10;;;;;;5006281;28;20182;-68
2023/03/06 04:24:24;;;;;;;1.50;1.00;;;40.10;20.70;;;;;;4996355;28;20648;-70
2023/03/06 04:26:51;;;;;;;1.95;1.30;;;39.70;21.20;;;;;;5007317;28;20231;-68
2023/03/06 04:29:18;;;;;;;2.55;1.00;;;40.00;21.30;;;;;;4999332;28;20572;-68
2023/03/06 04:31:46;;;;;;;2.28;1.00;;;40.90;20.20;;;;;;4998626;28;20184;-67
2023/03/06 04:34:13;;;;;;;2.45;1.13;;;40.80;20.30;;;;;;5007790;28;20260;-68
2023/03/06 04:36:49;;;;;;;2.00;1.17;;;39.80;21.00;;;;;;4999782;28;20185;-66
2023/03/06 04:39:17;;;;;;;4.32;1.40;;;39.80;20.40;;;;;;5011474;28;20188;-73
2023/03/06 04:41:44;;;;;;;4.22;1.35;;;40.00;20.30;;;;;;4996352;28;20209;-69
2023/03/06 04:44:11;;;;;;;4.88;1.65;;;40.20;20.20;;;;;;5009908;28;20260;-65
2023/03/06 04:46:39;;;;;;;5.57;1.77;;;39.70;20.80;;;;;;4997286;28;20276;-70
2023/03/06 04:49:06;;;;;;;6.88;1.92;;;39.60;20.40;;;;;;4992828;28;20185;-70
2023/03/06 04:51:35;;;;;;;2.22;1.27;;;40.00;20.10;;;;;;4986307;28;20667;-68
2023/03/06 04:54:03;;;;;;;3.65;1.13;;;40.70;19.90;;;;;;4984600;28;20221;-70
2023/03/06 04:56:31;;;;;;;6.50;1.27;;;40.30;20.40;;;;;;4993918;28;20186;-69
2023/03/06 04:58:58;;;;;;;2.25;1.20;;;39.60;20.60;;;;;;4991598;28;20189;-70
2023/03/06 05:01:25;;;;;;;1.10;0.85;;;40.50;20.30;;;;;;4989162;28;20209;-67
2023/03/06 05:03:52;;;;;;;1.67;0.90;;;41.00;17.10;;;;;;4994938;28;20182;-66
2023/03/06 05:06:20;;;;;;;1.60;0.98;;;41.80;15.80;;;;;;4993043;28;20181;-67
2023/03/06 05:08:48;;;;;;;5.95;0.77;;;42.20;15.50;;;;;;4986100;28;20675;-67
2023/03/06 05:11:15;;;;;;;2.17;0.90;;;42.70;15.70;;;;;;4989867;28;20232;-68
2023/03/06 05:13:42;;;;;;;1.05;0.82;;;42.10;15.90;;;;;;4996177;28;20232;-67
2023/03/06 05:16:09;;;;;;;1.55;0.70;;;41.20;16.10;;;;;;4987448;28;20254;-70
2023/03/06 05:18:37;;;;;;;3.10;0.82;;;40.00;17.00;;;;;;4990120;28;20186;-71
2023/03/06 05:21:06;;;;;;;5.25;0.85;;;39.40;17.30;;;;;;4992942;28;20181;-73
2023/03/06 05:23:37;;;;;;;2.10;0.75;;;39.30;17.70;;;;;;4991891;28;20212;-68
2023/03/06 05:26:09;;;;;;;2.55;1.10;;;38.90;17.90;;;;;;4988196;28;20185;-66
2023/03/06 05:28:37;;;;;;;2.42;0.68;;;39.10;17.50;;;;;;4989861;28;20191;-69
2023/03/06 05:31:05;;;;;;;6.28;0.77;;;40.80;17.10;;;;;;4986685;28;20616;-68
2023/03/06 05:33:33;;;;;;;1.33;0.90;;;42.10;15.40;;;;;;4999053;28;20213;-70
2023/03/06 05:36:01;;;;;;;6.72;0.70;;;42.50;15.20;;;;;;4988681;28;20213;-70
2023/03/06 05:38:29;;;;;;;3.63;0.70;;;41.70;15.30;;;;;;4988129;28;20691;-73
2023/03/06 05:40:56;;;;;;;2.67;0.70;;;41.20;15.50;;;;;;4990782;28;20189;-75
2023/03/06 05:43:23;;;;;;;2.55;0.80;;;42.30;15.10;;;;;;4971606;28;20228;-70
2023/03/06 05:45:51;;;;;;;2.95;0.80;;;42.70;14.50;;;;;;4996263;28;20230;-73
2023/03/06 05:48:19;;;;;;;0.77;0.63;;;42.40;14.50;;;;;;4994623;28;20213;-70
2023/03/06 05:50:53;;;;;;;1.70;0.70;;;41.90;15.30;;;;;;4996161;28;20189;-72
2023/03/06 05:53:21;;;;;;;1.77;0.88;;;41.60;15.40;;;;;;4993325;28;20209;-71
2023/03/06 05:55:59;;;;;;;0.90;0.52;;;41.80;15.00;;;;;;4978538;28;20541;-80
2023/03/06 05:58:28;;;;;;;4.22;1.00;;;41.40;15.10;;;;;;4993488;28;20264;-70
2023/03/06 06:00:55;;;;;;;4.45;0.70;;;40.60;15.70;;;;;;4991078;28;20182;-69
2023/03/06 06:03:23;;;;;;;1.00;0.60;;;40.80;16.00;;;;;;4991825;28;20261;-69
2023/03/06 06:05:51;;;;;;;3.35;0.73;;;41.00;15.70;;;;;;4989358;28;20247;-77
2023/03/06 06:08:19;;;;;;;0.75;0.70;;;41.90;15.10;;;;;;4996368;28;20186;-67
2023/03/06 06:10:47;;;;;;;2.53;0.90;;;42.80;14.90;;;;;;4993511;28;20273;-71
2023/03/06 06:13:14;;;;;;;2.78;0.70;;;43.40;14.30;;;;;;4985692;28;20219;-69
2023/03/06 06:15:41;;;;;;;1.55;0.73;;;42.60;14.00;;;;;;4994076;28;20698;-71
2023/03/06 06:18:09;;;;;;;1.90;0.90;;;42.70;14.00;;;;;;4996767;28;20194;-75
2023/03/06 06:20:37;;;;;;;2.33;0.70;;;42.40;13.80;;;;;;4990709;28;20178;-68
2023/03/06 06:23:05;;;;;;;2.00;0.77;;;41.60;14.40;;;;;;4999298;28;20193;-71
2023/03/06 06:25:33;;;;;;;2.13;0.80;;;42.20;14.50;;;;;;4991283;28;20656;-75
2023/03/06 06:28:00;;;;;;;2.30;0.80;;;43.10;14.00;;;;;;4995022;28;20209;-66
2023/03/06 06:30:27;;;;;;;4.47;0.80;;;42.90;13.70;;;;;;4981972;28;20174;-66
2023/03/06 06:32:55;;;;;;;0.57;0.50;;;42.70;13.90;;;;;;4995327;28;20205;-67
2023/03/06 06:35:22;;;;;;;0.90;0.70;;;42.60;13.70;;;;;;4993531;28;20186;-66
2023/03/06 06:37:50;;;;;;;3.28;0.77;;;42.60;13.90;;;;;;4976752;28;20285;-66
2023/03/06 06:40:17;;;;;;;1.27;0.65;;;41.30;14.40;;;;;;4990226;28;20187;-71
2023/03/06 06:42:45;;;;;;;2.75;0.52;;;41.30;14.70;;;;;;4995442;28;20190;-69
2023/03/06 06:45:13;;;;;;;1.92;0.80;;;40.90;15.30;;;;;;4989817;28;20236;-66
2023/03/06 06:47:41;;;;;;;2.70;0.65;;;39.90;15.80;;;;;;4982138;28;20182;-65
2023/03/06 06:50:12;;;;;;;2.08;0.90;;;39.80;16.00;;;;;;4991024;28;20240;-66
2023/03/06 06:52:39;;;;;;;4.88;0.93;;;41.20;15.40;;;;;;4995529;28;20205;-68
2023/03/06 06:55:08;;;;;;;4.45;0.77;;;42.00;14.40;;;;;;4993056;28;20660;-65
2023/03/06 06:57:35;;;;;;;4.13;0.70;;;42.00;14.20;;;;;;4996510;28;20261;-68
2023/03/06 07:00:03;;;;;;;0.88;0.50;;;41.70;14.20;;;;;;4993294;28;20189;-66
2023/03/06 07:02:31;;;;;;;5.18;0.70;;;41.20;15.00;;;;;;4994655;28;20554;-66
2023/03/06 07:04:58;;;;;;;4.35;0.80;;;41.50;14.50;;;;;;5000265;28;20512;-66
2023/03/06 07:07:26;;;;;;;3.33;0.93;;;42.20;14.40;;;;;;4998696;28;20188;-66
2023/03/06 07:09:54;;;;;;;4.50;0.80;;;42.00;14.20;;;;;;5015203;28;20710;-66
2023/03/06 07:12:21;;;;;;;2.97;0.80;;;41.80;14.20;;;;;;5014471;28;20586;-66
2023/03/06 07:14:49;;;;;;;1.23;0.50;;;41.90;14.20;;;;;;5010148;28;20535;-66
2023/03/06 07:17:16;;;;;;;1.75;0.82;;;42.10;13.70;;;;;;5000135;28;20189;-66
2023/03/06 07:19:43;;;;;;;0.90;0.70;;;42.20;14.00;;;;;;5014000;28;20171;-66
2023/03/06 07:22:11;;;;;;;1.48;0.70;;;42.60;13.90;;;;;;5014465;28;20643;-66
2023/03/06 07:24:38;;;;;;;1.50;0.70;;;42.40;13.90;;;;;;5013827;28;20185;-67
2023/03/06 07:27:06;;;;;;;1.92;0.75;;;42.40;14.00;;;;;;5004947;28;20224;-66
2023/03/06 07:29:33;;;;;;;3.60;1.08;;;42.10;14.10;;;;;;5003313;28;20199;-66
2023/03/06 07:32:00;;;;;;;5.57;1.70;;;42.50;18.60;;;;;;4993969;28;20679;-65
2023/03/06 07:34:28;;;;;;;7.57;1.42;;;41.40;21.30;;;;;;5005540;28;20653;-69
2023/03/06 07:36:55;;;;;;;4.60;1.40;;;39.70;23.50;;;;;;5012315;28;20221;-68
2023/03/06 07:39:22;;;;;;;6.22;1.77;;;38.70;24.40;;;;;;5009685;28;20194;-66
2023/03/06 07:41:51;;;;;;;7.38;1.60;;;39.10;24.10;;;;;;5013335;28;20253;-66
2023/03/06 07:44:18;;;;;;;5.20;1.92;;;38.90;24.40;;;;;;5001096;28;20191;-65
2023/03/06 07:46:45;;;;;;;5.65;1.83;;;38.60;24.50;;;;;;4989659;28;20182;-66
2023/03/06 07:49:13;;;;;;;5.28;1.70;;;38.60;24.90;;;;;;5003048;28;20185;-67
2023/03/06 07:51:40;;;;;;;5.38;1.70;;;38.50;24.90;;;;;;5011210;28;20189;-66
2023/03/06 07:54:07;;;;;;;7.57;2.00;;;37.90;25.80;;;;;;5005960;28;20209;-67
2023/03/06 07:56:35;;;;;;;6.25;1.83;;;37.20;27.00;;;;;;4993509;28;20232;-66
2023/03/06 07:59:02;;;;;;;3.72;1.88;;;36.30;28.00;;;;;;4994958;28;20200;-66
2023/03/06 08:01:30;;;;;;;8.27;1.92;;;35.70;29.10;;;;;;4992577;28;20186;-66
2023/03/06 08:03:59;;;;;;;4.25;1.65;;;35.50;29.40;;;;;;4991974;28;20189;-65
2023/03/06 08:06:27;;;;;;;6.90;1.90;;;35.30;30.20;;;;;;4999782;28;20265;-68
2023/03/06 08:08:55;;;;;;;8.75;2.13;;;35.00;30.60;;;;;;4989618;28;20228;-66
2023/03/06 08:11:27;;;;;;;9.70;2.00;;;34.70;31.10;;;;;;4989476;28;20247;-66
2023/03/06 08:13:56;;;;;;;4.78;1.98;;;34.50;31.40;;;;;;4994510;28;20218;-68
2023/03/06 08:16:29;;;;;;;3.83;2.05;;;34.20;32.30;;;;;;4994705;28;20201;-66
2023/03/06 08:18:57;;;;;;;6.72;2.50;;;34.20;32.50;;;;;;4991407;28;20202;-70
2023/03/06 08:21:27;;;;;;;5.60;2.53;;;33.90;33.10;;;;;;4993311;28;20248;-65
2023/03/06 08:23:54;;;;;;;7.43;2.67;;;33.70;33.80;;;;;;4994889;28;20190;-71
2023/03/06 08:26:25;;;;;;;8.63;3.00;;;33.40;34.10;;;;;;4988685;28;20182;-65
2023/03/06 08:28:55;;;;;;;12.52;3.00;;;33.40;34.10;;;;;;4990676;28;20692;-73
2023/03/06 08:31:27;;;;;;;8.77;2.72;;;33.30;34.60;;;;;;4986252;28;20186;-66
2023/03/06 08:33:56;;;;;;;9.32;3.00;;;33.20;35.20;;;;;;4982581;28;20226;-72
2023/03/06 08:36:24;;;;;;;9.10;2.80;;;33.00;35.90;;;;;;4986644;28;20656;-67
2023/03/06 08:38:51;;;;;;;9.13;3.15;;;32.80;36.20;;;;;;4988918;28;20225;-65
2023/03/06 08:41:19;;;;;;;10.75;2.85;;;32.60;36.80;;;;;;4987915;28;20182;-66
2023/03/06 08:43:47;;;;;;;8.88;3.08;;;32.50;37.10;;;;;;4987775;28;20186;-66
2023/03/06 08:46:15;;;;;;;8.50;2.92;;;32.30;37.70;;;;;;4988005;28;20228;-66
2023/03/06 08:48:42;;;;;;;7.88;3.08;;;32.20;38.00;;;;;;4986082;28;20186;-66
2023/03/06 08:51:10;;;;;;;6.88;3.00;;;32.00;38.50;;;;;;4989431;28;20243;-68
2023/03/06 08:53:38;;;;;;;11.40;4.32;;;31.80;38.80;;;;;;4989075;28;20218;-67
2023/03/06 08:56:06;;;;;;;9.68;3.42;;;31.80;39.10;;;;;;4991771;28;20189;-66
2023/03/06 08:58:33;;;;;;;10.93;2.78;;;31.80;39.20;;;;;;4990674;28;20185;-65
2023/03/06 09:01:04;;;;;;;7.70;2.83;;;31.80;39.40;;;;;;4985790;28;20185;-76
2023/03/06 09:03:31;;;;;;;9.40;2.85;;;31.70;40.10;;;;;;4987516;28;20645;-73
2023/03/06 09:06:00;;;;;;;11.65;3.30;;;31.60;40.40;;;;;;4988634;28;20181;-65
2023/03/06 09:08:27;;;;;;;9.43;2.72;;;31.40;40.80;;;;;;4990798;28;20349;-66
2023/03/06 09:10:55;;;;;;;12.25;3.42;;;31.40;41.00;;;;;;4990827;28;20181;-66
2023/03/06 09:13:22;;;;;;;10.38;3.08;;;31.30;41.40;;;;;;4991188;28;20224;-65
2023/03/06 09:15:49;;;;;;;8.02;2.70;;;31.30;41.70;;;;;;4989673;28;20253;-66
2023/03/06 09:18:17;;;;;;;11.15;3.63;;;31.20;42.00;;;;;;4977941;28;20187;-66
2023/03/06 09:20:44;;;;;;;10.48;3.47;;;31.10;42.30;;;;;;4983396;28;20578;-66
2023/03/06 09:23:11;;;;;;;12.23;3.63;;;31.10;42.40;;;;;;4980813;28;20182;-67
2023/03/06 09:25:38;;;;;;;9.55;3.60;;;31.00;42.80;;;;;;4984736;28;20597;-67
2023/03/06 09:28:06;;;;;;;10.90;3.47;;;30.90;42.40;;;;;;4988508;28;20214;-66
2023/03/06 09:30:33;;;;;;;11.93;3.78;;;30.90;42.80;;;;;;4985192;28;20261;-67
2023/03/06 09:33:00;;;;;;;13.50;4.13;;;30.80;43.20;;;;;;4983672;28;20213;-67
2023/03/06 09:35:28;;;;;;;13.77;4.15;;;30.70;43.30;;;;;;4986055;28;20183;-66
2023/03/06 09:37:55;;;;;;;15.32;3.97;;;30.70;43.80;;;;;;4988348;28;20323;-66
2023/03/06 09:40:52;;;;;;;9.23;3.63;;;30.60;44.60;;;;;;4986341;28;20186;-65
2023/03/06 09:43:34;;;;;;;11.48;3.65;;;30.50;44.70;;;;;;4976499;28;20193;-67
2023/03/06 09:46:12;;;;;;;11.02;3.95;;;30.40;45.00;;;;;;4991493;28;20186;-67
2023/03/06 09:48:51;;;;;;;10.65;3.58;;;30.30;45.50;;;;;;4990228;28;20222;-65
2023/03/06 09:51:24;;;;;;;13.57;4.32;;;30.30;45.80;;;;;;4981653;28;20197;-66
2023/03/06 09:54:13;;;;;;;10.02;3.63;;;30.20;47.00;;;;;;4982675;28;20620;-67
2023/03/06 09:56:48;;;;;;;18.52;4.45;;;30.00;47.50;;;;;;4985406;28;20197;-65
2023/03/06 09:59:27;;;;;;;12.30;3.70;;;29.90;48.30;;;;;;4989280;28;20192;-65
2023/03/06 10:02:12;;;;;;;10.50;3.55;;;29.80;48.30;;;;;;4988060;28;20189;-66
2023/03/06 10:04:48;;;;;;;8.50;3.60;;;29.60;47.60;;;;;;4985694;28;20178;-66
2023/03/06 10:07:32;;;;;;;11.35;3.03;;;29.60;47.30;;;;;;4982587;28;20210;-65
2023/03/06 10:10:06;;;;;;;11.55;3.47;;;29.50;48.30;;;;;;4980185;28;20182;-68
2023/03/06 10:12:42;;;;;;;15.50;3.85;;;29.40;49.40;;;;;;4966871;28;20241;-66
2023/03/06 10:15:25;;;;;;;13.10;3.90;;;29.30;49.80;;;;;;4984901;28;20283;-66
2023/03/06 10:17:53;;;;;;;12.63;3.97;;;29.30;49.90;;;;;;4983588;28;20225;-67
2023/03/06 10:20:25;;;;;;;13.82;4.55;;;29.30;50.40;;;;;;4968267;28;20202;-64
2023/03/06 10:23:04;;;;;;;11.02;3.78;;;29.30;50.40;;;;;;4983263;28;20266;-65
2023/03/06 10:25:57;;;;;;;12.23;3.90;;;29.20;51.10;;;;;;4979956;28;20240;-68
2023/03/06 10:28:50;;;;;;;9.68;3.92;;;29.00;51.20;;;;;;4984495;28;20688;-67
2023/03/06 10:31:26;;;;;;;18.40;4.50;;;28.90;51.30;;;;;;4988466;28;20517;-66
2023/03/06 10:33:55;;;;;;;15.33;4.70;;;28.80;53.60;;;;;;4986289;28;20206;-67
2023/03/06 10:36:28;;;;;;;20.10;4.97;;;28.80;54.80;;;;;;4990441;28;20186;-67
2023/03/06 10:38:58;;;;;;;15.82;4.70;;;28.80;57.80;;;;;;4991458;28;20193;-72
2023/03/06 10:41:29;;;;;;;23.10;5.57;;;28.80;58.70;;;;;;4992683;28;20636;-67
2023/03/06 10:44:07;;;;;;;25.63;5.57;;;28.80;59.80;;;;;;4990022;28;20182;-66
2023/03/06 10:46:53;;;;;;;19.80;5.60;;;28.70;61.20;;;;;;4990034;28;20187;-66
2023/03/06 10:49:30;;;;;;;26.40;6.07;;;28.70;61.80;;;;;;4986028;28;20192;-66
2023/03/06 10:52:23;;;;;;;21.83;6.07;;;28.60;62.40;;;;;;4986472;28;20186;-65
2023/03/06 10:54:51;;;;;;;23.92;6.03;;;28.40;63.10;;;;;;4973373;28;20202;-67
2023/03/06 10:57:30;;;;;;;22.80;6.20;;;28.30;63.40;;;;;;4986841;28;20174;-63
2023/03/06 11:00:05;;;;;;;24.20;5.63;;;28.30;64.00;;;;;;4988882;28;20182;-67
2023/03/06 11:02:37;;;;;;;24.83;6.37;;;28.40;64.60;;;;;;4986782;28;20273;-68
2023/03/06 11:05:05;;;;;;;20.97;6.03;;;28.40;65.00;;;;;;4986251;28;20194;-66
2023/03/06 11:07:51;;;;;;;24.57;5.93;;;28.30;65.70;;;;;;4991268;28;20198;-65
2023/03/06 11:10:20;;;;;;;26.03;6.00;;;28.30;66.50;;;;;;4987913;28;20205;-68
2023/03/06 11:13:06;;;;;;;27.30;7.13;;;28.30;67.00;;;;;;4989831;28;20233;-66
2023/03/06 11:15:34;;;;;;;26.87;6.37;;;28.30;67.80;;;;;;4989140;28;20628;-65
2023/03/06 11:18:05;;;;;;;36.20;7.67;;;28.10;69.10;;;;;;4986987;28;20193;-64
2023/03/06 11:20:43;;;;;;;39.10;8.23;;;28.00;70.10;;;;;;4990018;28;20241;-64
2023/03/06 11:23:28;;;;;;;26.17;6.37;;;27.90;69.90;;;;;;4986626;28;20271;-65
2023/03/06 11:26:17;;;;;;;27.53;5.67;;;27.80;69.90;;;;;;4987612;28;20178;-66
2023/03/06 11:29:12;;;;;;;22.70;5.13;;;27.60;70.10;;;;;;4985523;28;20197;-70
2023/03/06 11:32:29;;;;;;;20.63;4.17;;;27.50;69.70;;;;;;4988972;28;20583;-65
2023/03/06 11:35:08;;;;;;;18.13;4.37;;;27.30;70.00;;;;;;4978517;28;20226;-65
2023/03/06 11:37:52;;;;;;;18.43;4.80;;;27.20;71.70;;;;;;4991454;28;20182;-64
2023/03/06 11:40:27;;;;;;;20.37;4.20;;;27.20;73.70;;;;;;4984108;28;20735;-69
2023/03/06 11:43:15;;;;;;;17.03;4.23;;;27.10;74.30;;;;;;4991936;28;20208;-64
2023/03/06 11:45:50;;;;;;;19.57;4.73;;;27.00;75.50;;;;;;4981179;28;20190;-65
2023/03/06 11:49:05;;;;;;;20.93;4.77;;;27.00;76.40;;;;;;4984033;28;20181;-63
2023/03/06 11:51:39;;;;;;;20.83;4.90;;;26.90;77.80;;;;;;4947073;28;20201;-64
2023/03/06 11:54:12;;;;;;;15.87;4.73;;;26.80;78.70;;;;;;4988429;28;20217;-64
2023/03/06 11:56:55;;;;;;;19.63;4.93;;;26.60;79.50;;;;;;4988359;28;20668;-63
2023/03/06 11:59:28;;;;;;;25.20;5.93;;;26.50;80.30;;;;;;4984863;28;20709;-66
2023/03/06 12:02:46;;;;;;;25.47;5.83;;;26.60;80.50;;;;;;4982035;28;20678;-67
2023/03/06 12:05:32;;;;;;;27.83;5.50;;;26.40;80.80;;;;;;4921218;29;20428;-65
2023/03/06 12:08:33;;;;;;;25.50;5.97;;;26.30;81.40;;;;;;4983536;28;20201;-65
2023/03/06 12:11:40;;;;;;;28.30;5.93;;;26.20;81.90;;;;;;4984287;28;20189;-65
2023/03/06 12:14:40;;;;;;;30.43;5.63;;;26.20;82.20;;;;;;4980902;28;20222;-64
2023/03/06 12:17:27;;;;;;;31.83;6.67;;;26.00;82.30;;;;;;4987479;28;20193;-66
2023/03/06 12:20:05;;;;;;;30.57;6.13;;;26.00;82.60;;;;;;4987913;28;20186;-65
2023/03/06 12:22:55;;;;;;;22.93;6.10;;;25.90;82.60;;;;;;4989462;28;20676;-69
2023/03/06 12:25:31;;;;;;;34.53;6.77;;;25.80;82.80;;;;;;4991543;28;20186;-66
2023/03/06 12:28:10;;;;;;;26.97;5.77;;;25.80;82.80;;;;;;4989087;28;20182;-68
2023/03/06 12:31:06;;;;;;;30.53;6.33;;;25.70;82.70;;;;;;4992022;28;20210;-66
2023/03/06 12:33:52;;;;;;;31.30;6.63;;;25.70;82.30;;;;;;4972948;28;20790;-67
2023/03/06 12:36:45;;;;;;;26.67;5.40;;;25.70;82.50;;;;;;4991382;28;20182;-65
2023/03/06 12:39:47;;;;;;;28.03;6.10;;;25.60;82.30;;;;;;4991418;28;20185;-68
2023/03/06 12:42:55;;;;;;;29.40;6.67;;;25.40;82.60;;;;;;4951254;28;20182;-64
2023/03/06 12:45:36;;;;;;;27.27;5.77;;;25.40;82.80;;;;;;4970525;28;20206;-67
2023/03/06 12:48:21;;;;;;;27.63;5.73;;;25.30;82.90;;;;;;4985638;28;20190;-67
2023/03/06 12:50:50;;;;;;;22.63;5.43;;;25.30;82.80;;;;;;4984835;28;20182;-65
2023/03/06 12:53:29;;;;;;;32.73;5.80;;;25.30;82.50;;;;;;4986051;28;20217;-65
2023/03/06 12:55:59;;;;;;;30.67;5.97;;;25.20;82.60;;;;;;4986230;28;20189;-71
2023/03/06 12:58:29;;;;;;;25.87;5.70;;;25.20;81.90;;;;;;4987375;28;20186;-65
2023/03/06 13:01:15;;;;;;;32.40;6.77;;;25.20;81.80;;;;;;4986318;28;20194;-72
2023/03/06 13:04:20;;;;;;;28.87;6.00;;;25.10;82.10;;;;;;4989104;28;20192;-65
2023/03/06 13:07:14;;;;;;;33.70;6.27;;;25.00;82.10;;;;;;4980263;28;20227;-64